sensor_id;sensor_type;location;lat;lon;timestamp;temperature;humidity
43651;DHT22;29247;50.944;5.382;2023-07-20T00:01:03;19.50;85.90
43651;DHT22;29247;50.944;5.382;2023-07-20T00:03:29;19.50;86.00
43651;DHT22;29247;50.944;5.382;2023-07-20T00:05:55;19.50;86.10
43651;DHT22;29247;50.944;5.382;2023-07-20T00:08:23;19.50;86.10
43651;DHT22;29247;50.944;5.382;2023-07-20T00:10:51;19.50;85.90
43651;DHT22;29247;50.944;5.382;2023-07-20T00:13:18;19.50;85.90
43651;DHT22;29247;50.944;5.382;2023-07-20T00:15:46;19.50;86.60
43651;DHT22;29247;50.944;5.382;2023-07-20T00:18:12;19.40;85.70
43651;DHT22;29247;50.944;5.382;2023-07-20T00:20:42;19.40;85.80
43651;DHT22;29247;50.944;5.382;2023-07-20T00:23:10;19.40;85.90
43651;DHT22;29247;50.944;5.382;2023-07-20T00:25:36;19.30;85.90
43651;DHT22;29247;50.944;5.382;2023-07-20T00:28:04;19.30;86.00
43651;DHT22;29247;50.944;5.382;2023-07-20T00:30:30;19.30;85.90
43651;DHT22;29247;50.944;5.382;2023-07-20T00:33:00;19.30;86.10
43651;DHT22;29247;50.944;5.382;2023-07-20T00:35:28;19.30;86.30
43651;DHT22;29247;50.944;5.382;2023-07-20T00:37:59;19.20;86.20
43651;DHT22;29247;50.944;5.382;2023-07-20T00:40:24;19.20;86.30
43651;DHT22;29247;50.944;5.382;2023-07-20T00:42:50;19.20;86.30
43651;DHT22;29247;50.944;5.382;2023-07-20T00:45:16;19.20;86.40
43651;DHT22;29247;50.944;5.382;2023-07-20T00:47:41;19.10;86.40
43651;DHT22;29247;50.944;5.382;2023-07-20T00:50:07;19.20;86.50
43651;DHT22;29247;50.944;5.382;2023-07-20T00:52:34;19.10;86.60
43651;DHT22;29247;50.944;5.382;2023-07-20T00:55:05;19.10;86.70
43651;DHT22;29247;50.944;5.382;2023-07-20T00:57:32;19.10;86.80
43651;DHT22;29247;50.944;5.382;2023-07-20T00:59:58;19.10;86.70
43651;DHT22;29247;50.944;5.382;2023-07-20T01:02:24;19.00;86.70
43651;DHT22;29247;50.944;5.382;2023-07-20T01:04:49;19.10;87.00
43651;DHT22;29247;50.944;5.382;2023-07-20T01:07:31;19.10;87.20
43651;DHT22;29247;50.944;5.382;2023-07-20T01:12:46;19.00;87.20
43651;DHT22;29247;50.944;5.382;2023-07-20T01:15:13;19.00;87.10
43651;DHT22;29247;50.944;5.382;2023-07-20T01:17:38;19.00;87.10
43651;DHT22;29247;50.944;5.382;2023-07-20T01:20:06;19.00;87.40
43651;DHT22;29247;50.944;5.382;2023-07-20T01:33:48;19.00;87.70
43651;DHT22;29247;50.944;5.382;2023-07-20T01:36:17;19.00;87.60
43651;DHT22;29247;50.944;5.382;2023-07-20T01:38:43;19.00;87.60
43651;DHT22;29247;50.944;5.382;2023-07-20T01:41:15;19.00;87.60
43651;DHT22;29247;50.944;5.382;2023-07-20T01:43:40;19.00;87.70
43651;DHT22;29247;50.944;5.382;2023-07-20T01:46:06;18.90;87.50
43651;DHT22;29247;50.944;5.382;2023-07-20T01:48:32;18.90;87.40
43651;DHT22;29247;50.944;5.382;2023-07-20T01:50:58;18.90;87.50
43651;DHT22;29247;50.944;5.382;2023-07-20T01:53:23;18.90;87.60
43651;DHT22;29247;50.944;5.382;2023-07-20T01:55:57;18.80;87.40
43651;DHT22;29247;50.944;5.382;2023-07-20T01:58:24;18.90;87.40
43651;DHT22;29247;50.944;5.382;2023-07-20T02:00:50;18.80;87.30
43651;DHT22;29247;50.944;5.382;2023-07-20T02:03:18;18.80;87.50
43651;DHT22;29247;50.944;5.382;2023-07-20T02:05:47;18.80;87.40
43651;DHT22;29247;50.944;5.382;2023-07-20T02:08:12;18.80;87.50
43651;DHT22;29247;50.944;5.382;2023-07-20T02:10:38;18.80;87.50
43651;DHT22;29247;50.944;5.382;2023-07-20T02:13:04;18.80;87.40
43651;DHT22;29247;50.944;5.382;2023-07-20T02:15:31;18.80;87.40
43651;DHT22;29247;50.944;5.382;2023-07-20T02:17:57;18.70;87.30
43651;DHT22;29247;50.944;5.382;2023-07-20T02:20:23;18.70;87.10
43651;DHT22;29247;50.944;5.382;2023-07-20T02:22:48;18.70;87.10
43651;DHT22;29247;50.944;5.382;2023-07-20T02:25:14;18.60;87.10
43651;DHT22;29247;50.944;5.382;2023-07-20T02:27:42;18.60;87.20
43651;DHT22;29247;50.944;5.382;2023-07-20T02:30:08;18.60;87.30
43651;DHT22;29247;50.944;5.382;2023-07-20T02:32:36;18.60;87.40
43651;DHT22;29247;50.944;5.382;2023-07-20T02:35:05;18.60;87.50
43651;DHT22;29247;50.944;5.382;2023-07-20T02:37:31;18.40;87.50
43651;DHT22;29247;50.944;5.382;2023-07-20T02:40:00;18.60;87.80
43651;DHT22;29247;50.944;5.382;2023-07-20T02:42:29;18.60;87.70
43651;DHT22;29247;50.944;5.382;2023-07-20T02:44:55;18.50;87.60
43651;DHT22;29247;50.944;5.382;2023-07-20T02:47:22;18.50;87.70
43651;DHT22;29247;50.944;5.382;2023-07-20T02:49:53;18.50;87.80
43651;DHT22;29247;50.944;5.382;2023-07-20T02:52:18;18.50;87.80
43651;DHT22;29247;50.944;5.382;2023-07-20T02:54:46;18.50;88.00
43651;DHT22;29247;50.944;5.382;2023-07-20T02:57:12;18.50;88.10
43651;DHT22;29247;50.944;5.382;2023-07-20T02:59:40;18.50;88.10
43651;DHT22;29247;50.944;5.382;2023-07-20T03:02:06;18.50;88.10
43651;DHT22;29247;50.944;5.382;2023-07-20T03:04:35;18.50;88.20
43651;DHT22;29247;50.944;5.382;2023-07-20T03:07:06;18.50;88.10
43651;DHT22;29247;50.944;5.382;2023-07-20T03:09:33;18.50;88.10
43651;DHT22;29247;50.944;5.382;2023-07-20T03:11:59;18.40;88.20
43651;DHT22;29247;50.944;5.382;2023-07-20T03:14:24;18.40;88.40
43651;DHT22;29247;50.944;5.382;2023-07-20T03:16:50;18.50;88.50
43651;DHT22;29247;50.944;5.382;2023-07-20T03:19:18;18.40;88.40
43651;DHT22;29247;50.944;5.382;2023-07-20T03:21:44;18.40;88.30
43651;DHT22;29247;50.944;5.382;2023-07-20T03:24:09;18.40;88.30
43651;DHT22;29247;50.944;5.382;2023-07-20T03:26:37;18.40;88.40
43651;DHT22;29247;50.944;5.382;2023-07-20T03:29:04;18.40;88.50
43651;DHT22;29247;50.944;5.382;2023-07-20T03:31:30;18.40;88.60
43651;DHT22;29247;50.944;5.382;2023-07-20T03:33:55;18.40;88.60
43651;DHT22;29247;50.944;5.382;2023-07-20T03:36:21;18.40;88.70
43651;DHT22;29247;50.944;5.382;2023-07-20T03:38:50;18.40;88.70
43651;DHT22;29247;50.944;5.382;2023-07-20T03:41:18;18.40;88.70
43651;DHT22;29247;50.944;5.382;2023-07-20T03:43:45;18.40;88.70
43651;DHT22;29247;50.944;5.382;2023-07-20T03:46:13;18.40;88.80
43651;DHT22;29247;50.944;5.382;2023-07-20T03:48:38;18.40;88.90
43651;DHT22;29247;50.944;5.382;2023-07-20T03:51:04;18.40;89.00
43651;DHT22;29247;50.944;5.382;2023-07-20T03:53:32;18.40;89.00
43651;DHT22;29247;50.944;5.382;2023-07-20T03:56:00;18.40;89.00
43651;DHT22;29247;50.944;5.382;2023-07-20T03:58:25;18.40;89.20
43651;DHT22;29247;50.944;5.382;2023-07-20T04:00:51;18.40;89.10
43651;DHT22;29247;50.944;5.382;2023-07-20T04:03:18;18.40;89.10
43651;DHT22;29247;50.944;5.382;2023-07-20T04:05:44;18.40;89.00
43651;DHT22;29247;50.944;5.382;2023-07-20T04:08:12;18.40;89.10
43651;DHT22;29247;50.944;5.382;2023-07-20T04:10:38;18.30;89.20
43651;DHT22;29247;50.944;5.382;2023-07-20T04:13:04;18.40;89.10
43651;DHT22;29247;50.944;5.382;2023-07-20T04:15:32;18.40;89.10
43651;DHT22;29247;50.944;5.382;2023-07-20T04:17:59;18.30;89.00
43651;DHT22;29247;50.944;5.382;2023-07-20T04:20:26;18.40;89.00
43651;DHT22;29247;50.944;5.382;2023-07-20T04:22:52;18.30;88.90
43651;DHT22;29247;50.944;5.382;2023-07-20T04:25:18;18.30;89.00
43651;DHT22;29247;50.944;5.382;2023-07-20T04:27:44;18.30;89.10
43651;DHT22;29247;50.944;5.382;2023-07-20T04:30:12;18.40;89.20
43651;DHT22;29247;50.944;5.382;2023-07-20T04:32:38;18.40;89.30
43651;DHT22;29247;50.944;5.382;2023-07-20T04:35:09;18.40;89.50
43651;DHT22;29247;50.944;5.382;2023-07-20T04:37:37;18.40;89.60
43651;DHT22;29247;50.944;5.382;2023-07-20T04:40:04;18.40;89.70
43651;DHT22;29247;50.944;5.382;2023-07-20T04:42:29;18.40;89.60
43651;DHT22;29247;50.944;5.382;2023-07-20T04:44:55;18.50;89.70
43651;DHT22;29247;50.944;5.382;2023-07-20T04:47:23;18.50;89.70
43651;DHT22;29247;50.944;5.382;2023-07-20T04:49:51;18.40;89.60
43651;DHT22;29247;50.944;5.382;2023-07-20T04:52:16;18.40;89.60
43651;DHT22;29247;50.944;5.382;2023-07-20T04:54:42;18.40;89.70
43651;DHT22;29247;50.944;5.382;2023-07-20T04:57:11;18.50;90.00
43651;DHT22;29247;50.944;5.382;2023-07-20T04:59:37;18.50;90.00
43651;DHT22;29247;50.944;5.382;2023-07-20T05:02:02;18.50;90.00
43651;DHT22;29247;50.944;5.382;2023-07-20T05:04:31;18.50;90.00
43651;DHT22;29247;50.944;5.382;2023-07-20T05:06:56;18.50;90.00
43651;DHT22;29247;50.944;5.382;2023-07-20T05:09:25;18.60;90.00
43651;DHT22;29247;50.944;5.382;2023-07-20T05:11:50;18.60;90.00
43651;DHT22;29247;50.944;5.382;2023-07-20T05:14:18;18.60;89.80
43651;DHT22;29247;50.944;5.382;2023-07-20T05:16:44;18.60;89.90
43651;DHT22;29247;50.944;5.382;2023-07-20T05:19:09;18.60;89.70
43651;DHT22;29247;50.944;5.382;2023-07-20T05:21:39;18.60;89.80
43651;DHT22;29247;50.944;5.382;2023-07-20T05:24:05;18.60;89.80
43651;DHT22;29247;50.944;5.382;2023-07-20T05:26:31;18.70;89.90
43651;DHT22;29247;50.944;5.382;2023-07-20T05:29:00;18.70;89.90
43651;DHT22;29247;50.944;5.382;2023-07-20T05:31:26;18.70;89.80
43651;DHT22;29247;50.944;5.382;2023-07-20T05:33:52;18.70;89.60
43651;DHT22;29247;50.944;5.382;2023-07-20T05:36:17;18.70;89.50
43651;DHT22;29247;50.944;5.382;2023-07-20T05:38:43;18.70;89.40
43651;DHT22;29247;50.944;5.382;2023-07-20T05:41:08;18.80;89.60
43651;DHT22;29247;50.944;5.382;2023-07-20T05:43:35;18.80;90.20
43651;DHT22;29247;50.944;5.382;2023-07-20T05:46:01;18.80;89.60
43651;DHT22;29247;50.944;5.382;2023-07-20T05:48:27;18.90;89.40
43651;DHT22;29247;50.944;5.382;2023-07-20T05:50:52;18.90;89.40
43651;DHT22;29247;50.944;5.382;2023-07-20T05:53:19;18.90;89.40
43651;DHT22;29247;50.944;5.382;2023-07-20T05:55:52;18.90;89.30
43651;DHT22;29247;50.944;5.382;2023-07-20T05:58:17;18.90;89.30
43651;DHT22;29247;50.944;5.382;2023-07-20T06:00:48;18.90;89.10
43651;DHT22;29247;50.944;5.382;2023-07-20T06:03:14;19.00;89.30
43651;DHT22;29247;50.944;5.382;2023-07-20T06:05:43;19.00;89.30
43651;DHT22;29247;50.944;5.382;2023-07-20T06:08:08;19.00;89.50
43651;DHT22;29247;50.944;5.382;2023-07-20T06:10:34;19.10;89.50
43651;DHT22;29247;50.944;5.382;2023-07-20T06:13:00;19.10;89.40
43651;DHT22;29247;50.944;5.382;2023-07-20T06:15:32;19.20;89.60
43651;DHT22;29247;50.944;5.382;2023-07-20T06:18:00;19.20;89.50
43651;DHT22;29247;50.944;5.382;2023-07-20T06:20:26;19.30;89.30
43651;DHT22;29247;50.944;5.382;2023-07-20T06:22:57;19.40;88.90
43651;DHT22;29247;50.944;5.382;2023-07-20T06:25:22;19.40;88.50
43651;DHT22;29247;50.944;5.382;2023-07-20T06:27:49;19.40;88.30
43651;DHT22;29247;50.944;5.382;2023-07-20T06:30:19;19.40;88.10
43651;DHT22;29247;50.944;5.382;2023-07-20T06:32:45;19.40;88.00
43651;DHT22;29247;50.944;5.382;2023-07-20T06:35:11;19.50;87.90
43651;DHT22;29247;50.944;5.382;2023-07-20T06:37:38;19.50;87.70
43651;DHT22;29247;50.944;5.382;2023-07-20T06:40:05;19.50;87.50
43651;DHT22;29247;50.944;5.382;2023-07-20T06:42:33;19.50;87.10
43651;DHT22;29247;50.944;5.382;2023-07-20T06:44:58;19.50;87.10
43651;DHT22;29247;50.944;5.382;2023-07-20T06:47:26;19.50;86.80
43651;DHT22;29247;50.944;5.382;2023-07-20T06:49:52;19.60;87.00
43651;DHT22;29247;50.944;5.382;2023-07-20T06:52:23;19.60;87.20
43651;DHT22;29247;50.944;5.382;2023-07-20T06:54:48;19.60;87.10
43651;DHT22;29247;50.944;5.382;2023-07-20T06:57:16;19.70;87.00
43651;DHT22;29247;50.944;5.382;2023-07-20T06:59:42;19.70;86.90
43651;DHT22;29247;50.944;5.382;2023-07-20T07:02:08;19.70;86.80
43651;DHT22;29247;50.944;5.382;2023-07-20T07:04:33;19.80;86.80
43651;DHT22;29247;50.944;5.382;2023-07-20T07:07:01;19.80;86.30
43651;DHT22;29247;50.944;5.382;2023-07-20T07:09:31;19.80;86.20
43651;DHT22;29247;50.944;5.382;2023-07-20T07:11:57;19.80;86.10
43651;DHT22;29247;50.944;5.382;2023-07-20T07:14:23;19.80;85.90
43651;DHT22;29247;50.944;5.382;2023-07-20T07:16:48;19.90;85.90
43651;DHT22;29247;50.944;5.382;2023-07-20T07:19:16;19.90;85.60
43651;DHT22;29247;50.944;5.382;2023-07-20T07:21:42;19.90;85.80
43651;DHT22;29247;50.944;5.382;2023-07-20T07:24:10;19.90;85.50
43651;DHT22;29247;50.944;5.382;2023-07-20T07:26:36;20.00;85.40
43651;DHT22;29247;50.944;5.382;2023-07-20T07:29:03;20.00;85.40
43651;DHT22;29247;50.944;5.382;2023-07-20T07:31:29;20.00;85.10
43651;DHT22;29247;50.944;5.382;2023-07-20T07:33:58;20.10;84.90
43651;DHT22;29247;50.944;5.382;2023-07-20T07:36:23;20.10;84.60
43651;DHT22;29247;50.944;5.382;2023-07-20T07:38:52;20.10;84.20
43651;DHT22;29247;50.944;5.382;2023-07-20T07:41:20;20.10;84.10
43651;DHT22;29247;50.944;5.382;2023-07-20T07:43:46;20.10;84.20
43651;DHT22;29247;50.944;5.382;2023-07-20T07:46:12;20.10;83.80
43651;DHT22;29247;50.944;5.382;2023-07-20T07:48:38;20.10;83.20
43651;DHT22;29247;50.944;5.382;2023-07-20T07:51:04;20.10;83.00
43651;DHT22;29247;50.944;5.382;2023-07-20T07:53:32;20.10;83.20
43651;DHT22;29247;50.944;5.382;2023-07-20T07:55:58;20.10;83.40
43651;DHT22;29247;50.944;5.382;2023-07-20T07:58:24;20.20;84.00
43651;DHT22;29247;50.944;5.382;2023-07-20T08:00:49;20.30;84.10
43651;DHT22;29247;50.944;5.382;2023-07-20T08:03:17;20.50;84.40
43651;DHT22;29247;50.944;5.382;2023-07-20T08:05:44;20.60;83.70
43651;DHT22;29247;50.944;5.382;2023-07-20T08:08:14;20.80;84.20
43651;DHT22;29247;50.944;5.382;2023-07-20T08:10:42;21.00;82.80
43651;DHT22;29247;50.944;5.382;2023-07-20T08:13:08;21.00;82.20
43651;DHT22;29247;50.944;5.382;2023-07-20T08:15:33;21.10;81.00
43651;DHT22;29247;50.944;5.382;2023-07-20T08:17:59;21.20;80.40
43651;DHT22;29247;50.944;5.382;2023-07-20T08:20:25;21.30;80.90
43651;DHT22;29247;50.944;5.382;2023-07-20T08:22:56;21.40;80.30
43651;DHT22;29247;50.944;5.382;2023-07-20T08:25:23;21.50;79.00
43651;DHT22;29247;50.944;5.382;2023-07-20T08:27:49;21.50;77.50
43651;DHT22;29247;50.944;5.382;2023-07-20T08:30:14;21.50;76.90
43651;DHT22;29247;50.944;5.382;2023-07-20T08:32:43;21.40;76.70
43651;DHT22;29247;50.944;5.382;2023-07-20T08:35:08;21.40;76.80
43651;DHT22;29247;50.944;5.382;2023-07-20T08:37:34;21.40;76.90
43651;DHT22;29247;50.944;5.382;2023-07-20T08:40:00;21.40;76.40
43651;DHT22;29247;50.944;5.382;2023-07-20T08:42:27;21.40;76.40
43651;DHT22;29247;50.944;5.382;2023-07-20T08:44:53;21.40;76.30
43651;DHT22;29247;50.944;5.382;2023-07-20T08:47:22;21.50;76.60
43651;DHT22;29247;50.944;5.382;2023-07-20T08:49:49;21.60;76.50
43651;DHT22;29247;50.944;5.382;2023-07-20T08:52:15;21.70;76.20
43651;DHT22;29247;50.944;5.382;2023-07-20T08:54:43;21.80;75.30
43651;DHT22;29247;50.944;5.382;2023-07-20T08:57:10;21.80;74.00
43651;DHT22;29247;50.944;5.382;2023-07-20T08:59:43;21.90;73.90
43651;DHT22;29247;50.944;5.382;2023-07-20T09:02:13;21.90;73.60
43651;DHT22;29247;50.944;5.382;2023-07-20T09:04:41;21.90;73.80
43651;DHT22;29247;50.944;5.382;2023-07-20T09:07:09;22.00;73.70
43651;DHT22;29247;50.944;5.382;2023-07-20T09:09:40;22.10;73.90
43651;DHT22;29247;50.944;5.382;2023-07-20T09:12:15;22.30;73.70
43651;DHT22;29247;50.944;5.382;2023-07-20T09:14:43;22.40;72.30
43651;DHT22;29247;50.944;5.382;2023-07-20T09:17:14;22.50;71.90
43651;DHT22;29247;50.944;5.382;2023-07-20T09:19:47;22.50;72.00
43651;DHT22;29247;50.944;5.382;2023-07-20T09:22:16;22.50;69.50
43651;DHT22;29247;50.944;5.382;2023-07-20T09:24:44;22.60;69.80
43651;DHT22;29247;50.944;5.382;2023-07-20T09:27:09;22.70;69.30
43651;DHT22;29247;50.944;5.382;2023-07-20T09:29:47;22.70;68.40
43651;DHT22;29247;50.944;5.382;2023-07-20T09:32:23;22.70;68.70
43651;DHT22;29247;50.944;5.382;2023-07-20T09:34:54;22.80;68.70
43651;DHT22;29247;50.944;5.382;2023-07-20T09:37:23;22.80;68.30
43651;DHT22;29247;50.944;5.382;2023-07-20T09:39:52;22.90;68.30
43651;DHT22;29247;50.944;5.382;2023-07-20T09:42:20;23.00;68.00
43651;DHT22;29247;50.944;5.382;2023-07-20T09:44:49;23.00;67.40
43651;DHT22;29247;50.944;5.382;2023-07-20T09:47:24;23.10;66.70
43651;DHT22;29247;50.944;5.382;2023-07-20T09:49:52;23.10;65.70
43651;DHT22;29247;50.944;5.382;2023-07-20T09:52:22;23.20;65.90
43651;DHT22;29247;50.944;5.382;2023-07-20T09:54:51;23.30;65.90
43651;DHT22;29247;50.944;5.382;2023-07-20T09:57:18;23.30;64.70
43651;DHT22;29247;50.944;5.382;2023-07-20T09:59:43;23.40;63.10
43651;DHT22;29247;50.944;5.382;2023-07-20T10:02:32;23.30;63.10
43651;DHT22;29247;50.944;5.382;2023-07-20T10:05:03;23.20;62.90
43651;DHT22;29247;50.944;5.382;2023-07-20T10:07:36;23.20;63.60
43651;DHT22;29247;50.944;5.382;2023-07-20T10:10:06;23.20;64.50
43651;DHT22;29247;50.944;5.382;2023-07-20T10:12:37;23.30;64.70
43651;DHT22;29247;50.944;5.382;2023-07-20T10:15:24;23.40;65.60
43651;DHT22;29247;50.944;5.382;2023-07-20T10:18:17;23.50;65.70
43651;DHT22;29247;50.944;5.382;2023-07-20T10:20:44;23.60;63.90
43651;DHT22;29247;50.944;5.382;2023-07-20T10:23:12;23.60;63.00
43651;DHT22;29247;50.944;5.382;2023-07-20T10:25:38;23.60;60.10
43651;DHT22;29247;50.944;5.382;2023-07-20T10:28:10;23.50;60.60
43651;DHT22;29247;50.944;5.382;2023-07-20T10:30:37;23.40;60.60
43651;DHT22;29247;50.944;5.382;2023-07-20T10:33:05;23.40;61.30
43651;DHT22;29247;50.944;5.382;2023-07-20T10:35:58;23.40;61.00
43651;DHT22;29247;50.944;5.382;2023-07-20T10:38:42;23.50;60.40
43651;DHT22;29247;50.944;5.382;2023-07-20T10:41:18;23.50;60.10
43651;DHT22;29247;50.944;5.382;2023-07-20T10:43:47;23.50;59.90
43651;DHT22;29247;50.944;5.382;2023-07-20T10:49:06;23.40;59.50
43651;DHT22;29247;50.944;5.382;2023-07-20T10:51:46;23.50;60.40
43651;DHT22;29247;50.944;5.382;2023-07-20T10:56:47;23.60;61.10
43651;DHT22;29247;50.944;5.382;2023-07-20T11:01:55;23.80;61.50
43651;DHT22;29247;50.944;5.382;2023-07-20T11:07:09;23.70;59.10
43651;DHT22;29247;50.944;5.382;2023-07-20T11:09:35;23.70;59.80
43651;DHT22;29247;50.944;5.382;2023-07-20T11:12:18;23.80;60.20
43651;DHT22;29247;50.944;5.382;2023-07-20T11:14:53;23.80;60.10
43651;DHT22;29247;50.944;5.382;2023-07-20T11:17:19;23.90;60.10
43651;DHT22;29247;50.944;5.382;2023-07-20T11:19:55;24.00;59.70
43651;DHT22;29247;50.944;5.382;2023-07-20T11:22:21;24.00;59.70
43651;DHT22;29247;50.944;5.382;2023-07-20T11:24:47;24.00;59.20
43651;DHT22;29247;50.944;5.382;2023-07-20T11:27:14;24.00;58.70
43651;DHT22;29247;50.944;5.382;2023-07-20T11:29:40;23.90;58.50
43651;DHT22;29247;50.944;5.382;2023-07-20T11:32:08;23.90;58.80
43651;DHT22;29247;50.944;5.382;2023-07-20T11:34:34;23.90;59.00
43651;DHT22;29247;50.944;5.382;2023-07-20T11:37:01;24.00;58.80
43651;DHT22;29247;50.944;5.382;2023-07-20T11:39:30;24.10;58.80
43651;DHT22;29247;50.944;5.382;2023-07-20T11:41:56;24.20;58.70
43651;DHT22;29247;50.944;5.382;2023-07-20T11:44:24;24.20;58.60
43651;DHT22;29247;50.944;5.382;2023-07-20T11:49:29;24.30;57.10
43651;DHT22;29247;50.944;5.382;2023-07-20T11:51:58;24.20;56.80
43651;DHT22;29247;50.944;5.382;2023-07-20T11:54:24;24.20;57.30
43651;DHT22;29247;50.944;5.382;2023-07-20T11:56:54;24.30;57.80
43651;DHT22;29247;50.944;5.382;2023-07-20T11:59:21;24.40;57.50
43651;DHT22;29247;50.944;5.382;2023-07-20T12:01:47;24.40;57.40
43651;DHT22;29247;50.944;5.382;2023-07-20T12:04:12;24.50;57.30
43651;DHT22;29247;50.944;5.382;2023-07-20T12:06:40;24.60;57.20
43651;DHT22;29247;50.944;5.382;2023-07-20T12:09:16;24.70;56.80
43651;DHT22;29247;50.944;5.382;2023-07-20T12:11:45;24.70;56.20
43651;DHT22;29247;50.944;5.382;2023-07-20T12:14:14;24.80;55.90
43651;DHT22;29247;50.944;5.382;2023-07-20T12:16:40;24.80;55.70
43651;DHT22;29247;50.944;5.382;2023-07-20T12:19:12;24.90;56.00
43651;DHT22;29247;50.944;5.382;2023-07-20T12:21:40;24.90;55.80
43651;DHT22;29247;50.944;5.382;2023-07-20T12:24:08;25.00;55.30
43651;DHT22;29247;50.944;5.382;2023-07-20T12:26:37;25.00;55.50
43651;DHT22;29247;50.944;5.382;2023-07-20T12:29:03;25.00;54.90
43651;DHT22;29247;50.944;5.382;2023-07-20T12:31:29;24.90;54.90
43651;DHT22;29247;50.944;5.382;2023-07-20T12:33:57;24.90;55.20
43651;DHT22;29247;50.944;5.382;2023-07-20T12:36:23;24.90;55.40
43651;DHT22;29247;50.944;5.382;2023-07-20T12:38:49;24.90;55.20
43651;DHT22;29247;50.944;5.382;2023-07-20T12:41:17;24.90;55.40
43651;DHT22;29247;50.944;5.382;2023-07-20T12:43:46;25.00;54.70
43651;DHT22;29247;50.944;5.382;2023-07-20T12:46:13;24.90;53.70
43651;DHT22;29247;50.944;5.382;2023-07-20T12:48:41;24.80;54.10
43651;DHT22;29247;50.944;5.382;2023-07-20T12:51:08;24.80;54.40
43651;DHT22;29247;50.944;5.382;2023-07-20T12:53:34;24.80;54.30
43651;DHT22;29247;50.944;5.382;2023-07-20T12:56:00;24.80;54.50
43651;DHT22;29247;50.944;5.382;2023-07-20T12:58:29;24.80;54.10
43651;DHT22;29247;50.944;5.382;2023-07-20T13:00:59;24.80;54.10
43651;DHT22;29247;50.944;5.382;2023-07-20T13:03:25;24.80;54.20
43651;DHT22;29247;50.944;5.382;2023-07-20T13:05:50;24.80;52.40
43651;DHT22;29247;50.944;5.382;2023-07-20T13:08:16;24.80;51.90
43651;DHT22;29247;50.944;5.382;2023-07-20T13:10:44;24.80;51.90
43651;DHT22;29247;50.944;5.382;2023-07-20T13:13:14;24.70;52.10
43651;DHT22;29247;50.944;5.382;2023-07-20T13:15:44;24.70;51.50
43651;DHT22;29247;50.944;5.382;2023-07-20T13:18:09;24.70;51.80
43651;DHT22;29247;50.944;5.382;2023-07-20T13:20:35;24.70;51.50
43651;DHT22;29247;50.944;5.382;2023-07-20T13:23:01;24.60;51.70
43651;DHT22;29247;50.944;5.382;2023-07-20T13:25:29;24.60;52.10
43651;DHT22;29247;50.944;5.382;2023-07-20T13:27:54;24.50;52.20
43651;DHT22;29247;50.944;5.382;2023-07-20T13:30:20;24.50;52.40
43651;DHT22;29247;50.944;5.382;2023-07-20T13:32:47;24.50;52.30
43651;DHT22;29247;50.944;5.382;2023-07-20T13:35:12;24.40;52.10
43651;DHT22;29247;50.944;5.382;2023-07-20T13:37:38;24.40;52.50
43651;DHT22;29247;50.944;5.382;2023-07-20T13:40:06;24.40;52.40
43651;DHT22;29247;50.944;5.382;2023-07-20T13:42:34;24.30;52.10
43651;DHT22;29247;50.944;5.382;2023-07-20T13:44:59;24.40;52.80
43651;DHT22;29247;50.944;5.382;2023-07-20T13:47:26;24.50;53.00
43651;DHT22;29247;50.944;5.382;2023-07-20T13:49:52;24.50;52.40
43651;DHT22;29247;50.944;5.382;2023-07-20T13:52:17;24.70;52.10
43651;DHT22;29247;50.944;5.382;2023-07-20T13:54:47;24.80;52.10
43651;DHT22;29247;50.944;5.382;2023-07-20T13:57:15;24.80;51.60
43651;DHT22;29247;50.944;5.382;2023-07-20T13:59:44;24.90;51.70
43651;DHT22;29247;50.944;5.382;2023-07-20T14:02:10;25.00;50.60
43651;DHT22;29247;50.944;5.382;2023-07-20T14:04:36;25.00;50.10
43651;DHT22;29247;50.944;5.382;2023-07-20T14:07:02;25.00;49.30
43651;DHT22;29247;50.944;5.382;2023-07-20T14:09:28;25.00;48.80
43651;DHT22;29247;50.944;5.382;2023-07-20T14:11:53;25.00;48.80
43651;DHT22;29247;50.944;5.382;2023-07-20T14:14:21;25.00;48.80
43651;DHT22;29247;50.944;5.382;2023-07-20T14:16:47;25.00;48.70
43651;DHT22;29247;50.944;5.382;2023-07-20T14:19:13;25.00;49.10
43651;DHT22;29247;50.944;5.382;2023-07-20T14:21:38;25.00;49.20
43651;DHT22;29247;50.944;5.382;2023-07-20T14:24:06;25.00;48.30
43651;DHT22;29247;50.944;5.382;2023-07-20T14:26:34;25.20;47.90
43651;DHT22;29247;50.944;5.382;2023-07-20T14:29:03;25.20;48.30
43651;DHT22;29247;50.944;5.382;2023-07-20T14:31:31;25.20;47.00
43651;DHT22;29247;50.944;5.382;2023-07-20T14:34:04;25.20;47.30
43651;DHT22;29247;50.944;5.382;2023-07-20T14:36:30;25.20;47.80
43651;DHT22;29247;50.944;5.382;2023-07-20T14:38:56;25.30;48.00
43651;DHT22;29247;50.944;5.382;2023-07-20T14:41:22;25.30;48.10
43651;DHT22;29247;50.944;5.382;2023-07-20T14:43:49;25.30;48.10
43651;DHT22;29247;50.944;5.382;2023-07-20T14:46:20;25.30;47.50
43651;DHT22;29247;50.944;5.382;2023-07-20T14:48:45;25.20;47.30
43651;DHT22;29247;50.944;5.382;2023-07-20T14:51:14;25.20;47.50
43651;DHT22;29247;50.944;5.382;2023-07-20T14:53:42;25.10;47.20
43651;DHT22;29247;50.944;5.382;2023-07-20T14:56:07;25.00;46.40
43651;DHT22;29247;50.944;5.382;2023-07-20T14:58:33;25.00;47.30
43651;DHT22;29247;50.944;5.382;2023-07-20T15:00:59;24.90;47.50
43651;DHT22;29247;50.944;5.382;2023-07-20T15:03:24;24.90;47.80
43651;DHT22;29247;50.944;5.382;2023-07-20T15:05:50;24.90;47.40
43651;DHT22;29247;50.944;5.382;2023-07-20T15:08:17;24.80;48.00
43651;DHT22;29247;50.944;5.382;2023-07-20T15:10:44;24.80;48.20
43651;DHT22;29247;50.944;5.382;2023-07-20T15:13:12;24.80;48.30
43651;DHT22;29247;50.944;5.382;2023-07-20T15:15:40;24.80;48.00
43651;DHT22;29247;50.944;5.382;2023-07-20T15:18:09;24.80;47.40
43651;DHT22;29247;50.944;5.382;2023-07-20T15:20:35;24.70;47.30
43651;DHT22;29247;50.944;5.382;2023-07-20T15:23:00;24.70;47.00
43651;DHT22;29247;50.944;5.382;2023-07-20T15:25:26;24.60;47.60
43651;DHT22;29247;50.944;5.382;2023-07-20T15:27:52;24.60;48.50
43651;DHT22;29247;50.944;5.382;2023-07-20T15:30:20;24.60;49.40
43651;DHT22;29247;50.944;5.382;2023-07-20T15:32:49;24.60;50.20
43651;DHT22;29247;50.944;5.382;2023-07-20T15:35:15;24.60;49.80
43651;DHT22;29247;50.944;5.382;2023-07-20T15:37:40;24.60;49.40
43651;DHT22;29247;50.944;5.382;2023-07-20T15:40:06;24.50;49.70
43651;DHT22;29247;50.944;5.382;2023-07-20T15:42:32;24.50;50.60
43651;DHT22;29247;50.944;5.382;2023-07-20T15:44:58;24.40;51.30
43651;DHT22;29247;50.944;5.382;2023-07-20T15:47:24;24.40;51.70
43651;DHT22;29247;50.944;5.382;2023-07-20T15:49:52;24.40;52.10
43651;DHT22;29247;50.944;5.382;2023-07-20T15:52:17;24.40;52.60
43651;DHT22;29247;50.944;5.382;2023-07-20T15:54:46;24.30;52.90
43651;DHT22;29247;50.944;5.382;2023-07-20T15:57:11;24.30;53.10
43651;DHT22;29247;50.944;5.382;2023-07-20T15:59:40;24.20;53.00